Time;durP1;ratioP1;P1;durP2;ratioP2;P2;SDS_P1;SDS_P2;PMS_P1;PMS_P2;Temp;Humidity;BMP_temperature;BMP_pressure;BME280_temperature;BME280_humidity;BME280_pressure;Samples;Min_cycle;Max_cycle;Signal;HPM_P1;HPM_P2
2021/07/21 00:01:28;;;;;;;6.93;4.47;;;19.30;98.10;;;;;;5093579;28;20996;-73
2021/07/21 00:03:54;;;;;;;6.23;4.60;;;19.20;98.20;;;;;;5093981;28;20472;-76
2021/07/21 00:06:21;;;;;;;10.50;5.07;;;19.20;98.00;;;;;;5093832;28;20454;-76
2021/07/21 00:08:48;;;;;;;6.27;4.60;;;19.20;98.30;;;;;;5093838;28;20490;-75
2021/07/21 00:14:04;;;;;;;8.25;5.38;;;19.20;98.10;;;;;;5093935;28;20497;-76
2021/07/21 00:16:34;;;;;;;7.57;5.40;;;19.20;98.30;;;;;;5093889;28;20252;-76
2021/07/21 00:19:05;;;;;;;7.10;5.40;;;19.20;98.20;;;;;;5093371;28;20449;-76
2021/07/21 00:21:32;;;;;;;6.60;5.40;;;19.10;98.50;;;;;;5093896;28;20586;-77
2021/07/21 00:23:59;;;;;;;5.97;4.70;;;19.10;98.40;;;;;;5093380;28;20572;-76
2021/07/21 00:26:26;;;;;;;6.27;4.70;;;19.10;98.60;;;;;;5093114;28;20544;-76
2021/07/21 00:28:52;;;;;;;6.68;4.82;;;19.00;98.60;;;;;;5092991;28;20518;-75
2021/07/21 00:31:20;;;;;;;6.40;5.60;;;19.00;99.00;;;;;;5092714;28;20219;-75
2021/07/21 00:33:48;;;;;;;7.07;6.05;;;18.90;99.30;;;;;;5093215;28;20448;-74
2021/07/21 00:36:15;;;;;;;6.77;5.00;;;19.00;98.90;;;;;;5093030;28;20199;-75
2021/07/21 00:38:42;;;;;;;7.57;6.00;;;19.00;98.60;;;;;;5093058;28;20544;-75
2021/07/21 00:41:09;;;;;;;6.53;5.03;;;19.00;98.30;;;;;;5092671;28;20464;-75
2021/07/21 00:43:36;;;;;;;7.20;4.87;;;19.00;98.60;;;;;;5092854;28;20457;-74
2021/07/21 00:46:03;;;;;;;7.97;5.37;;;19.00;98.30;;;;;;5092573;28;20451;-79
2021/07/21 00:48:31;;;;;;;9.52;5.15;;;18.90;98.20;;;;;;5095297;28;20535;-77
2021/07/21 00:50:59;;;;;;;6.78;5.00;;;18.90;98.40;;;;;;5093871;28;20221;-77
2021/07/21 00:53:27;;;;;;;8.05;5.38;;;18.80;98.80;;;;;;5094250;28;20203;-78
2021/07/21 00:55:54;;;;;;;5.13;4.63;;;18.70;99.20;;;;;;5093718;28;20204;-76
2021/07/21 00:58:21;;;;;;;8.00;5.25;;;18.80;99.50;;;;;;5092783;28;20567;-76
2021/07/21 01:00:47;;;;;;;8.55;5.78;;;18.70;99.60;;;;;;5092625;28;20223;-77
2021/07/21 01:03:14;;;;;;;7.28;5.10;;;18.60;99.60;;;;;;5092732;28;20296;-77
2021/07/21 01:05:43;;;;;;;6.90;5.70;;;18.60;99.80;;;;;;5092092;28;20312;-76
2021/07/21 01:08:12;;;;;;;8.25;5.53;;;18.50;99.90;;;;;;5092460;28;20300;-76
2021/07/21 01:10:41;;;;;;;7.53;5.13;;;18.60;99.90;;;;;;5092327;28;20257;-76
2021/07/21 01:13:15;;;;;;;6.80;5.13;;;18.60;99.90;;;;;;5092207;28;20668;-76
2021/07/21 01:15:47;;;;;;;7.85;4.95;;;18.60;99.90;;;;;;5092047;28;20285;-75
2021/07/21 01:18:21;;;;;;;6.97;5.20;;;18.50;99.90;;;;;;5089811;28;20228;-75
2021/07/21 01:21:16;;;;;;;6.32;4.75;;;18.40;99.90;;;;;;5091394;28;20308;-75
2021/07/21 01:24:14;;;;;;;6.40;4.85;;;18.40;99.90;;;;;;5092053;28;20297;-75
2021/07/21 01:26:47;;;;;;;7.88;5.60;;;18.40;99.90;;;;;;4990324;28;20288;-75
2021/07/21 01:29:19;;;;;;;8.60;5.40;;;18.40;99.90;;;;;;5074295;28;20299;-74
2021/07/21 01:31:48;;;;;;;6.03;5.00;;;18.40;99.90;;;;;;5094121;28;20229;-72
2021/07/21 01:34:17;;;;;;;7.18;5.47;;;18.30;99.90;;;;;;5094736;28;20194;-73
2021/07/21 01:36:50;;;;;;;7.20;5.15;;;18.20;99.90;;;;;;5094954;28;20563;-72
2021/07/21 01:39:22;;;;;;;8.18;5.75;;;18.20;99.90;;;;;;5095094;28;20559;-72
2021/07/21 01:41:52;;;;;;;7.70;5.43;;;18.20;99.90;;;;;;5094559;28;20264;-72
2021/07/21 01:44:23;;;;;;;7.05;5.10;;;18.20;99.90;;;;;;5093522;28;20222;-72
2021/07/21 01:46:54;;;;;;;7.28;5.10;;;18.20;99.90;;;;;;5093624;28;20210;-72
2021/07/21 01:49:24;;;;;;;7.25;5.32;;;18.10;99.90;;;;;;5093984;28;20206;-72
2021/07/21 01:51:51;;;;;;;8.40;5.65;;;18.10;99.90;;;;;;5093738;28;20559;-72
2021/07/21 01:54:20;;;;;;;7.47;5.50;;;18.10;99.90;;;;;;5093923;28;20202;-72
2021/07/21 01:56:48;;;;;;;8.05;5.53;;;18.10;99.90;;;;;;5094168;28;20600;-72
2021/07/21 01:59:16;;;;;;;6.20;5.10;;;18.00;99.90;;;;;;5093498;28;20205;-72
2021/07/21 02:01:46;;;;;;;6.75;5.10;;;18.10;99.90;;;;;;5093665;28;20313;-72
2021/07/21 02:04:14;;;;;;;7.32;5.80;;;18.10;99.90;;;;;;5093754;28;20221;-72
2021/07/21 02:06:41;;;;;;;7.65;5.07;;;17.90;99.90;;;;;;5093623;28;20209;-72
2021/07/21 02:09:11;;;;;;;8.10;5.47;;;18.00;99.90;;;;;;5093933;28;20289;-72
2021/07/21 02:11:40;;;;;;;8.00;5.82;;;17.90;99.90;;;;;;5093048;28;20691;-72
2021/07/21 02:14:11;;;;;;;9.10;6.32;;;17.90;99.90;;;;;;5093597;28;20198;-72
2021/07/21 02:16:43;;;;;;;7.10;4.95;;;17.90;99.90;;;;;;5095232;28;20226;-72
2021/07/21 02:19:12;;;;;;;8.10;5.40;;;17.90;99.90;;;;;;5097475;28;20297;-72
2021/07/21 02:21:40;;;;;;;7.70;6.03;;;17.90;99.90;;;;;;5096668;28;20224;-72
2021/07/21 02:24:08;;;;;;;6.65;5.70;;;17.90;99.90;;;;;;5096898;28;20655;-72
2021/07/21 02:26:38;;;;;;;5.95;4.68;;;17.80;99.90;;;;;;5097419;28;20210;-72
2021/07/21 02:29:05;;;;;;;8.38;5.50;;;17.80;99.90;;;;;;5097078;28;20221;-73
2021/07/21 02:31:50;;;;;;;6.88;5.20;;;17.80;99.90;;;;;;5097435;28;20730;-72
2021/07/21 02:34:18;;;;;;;9.10;5.85;;;17.80;99.90;;;;;;5097876;28;20201;-72
2021/07/21 02:36:46;;;;;;;8.63;5.35;;;17.70;99.90;;;;;;5097247;28;20241;-72
2021/07/21 02:39:13;;;;;;;8.45;5.57;;;17.60;99.90;;;;;;5097207;28;20199;-72
2021/07/21 02:41:42;;;;;;;8.00;5.63;;;17.60;99.90;;;;;;5096920;28;20228;-72
2021/07/21 02:44:10;;;;;;;8.35;5.78;;;17.60;99.90;;;;;;5097182;28;20556;-72
2021/07/21 02:46:37;;;;;;;7.50;5.68;;;17.60;99.90;;;;;;5097106;28;20623;-72
2021/07/21 02:49:04;;;;;;;7.25;5.22;;;17.60;99.90;;;;;;5096580;28;20298;-72
2021/07/21 02:51:36;;;;;;;7.30;6.43;;;17.50;99.90;;;;;;5096446;28;20222;-72
2021/07/21 02:54:11;;;;;;;8.20;6.10;;;17.50;99.90;;;;;;5096949;28;20206;-72
2021/07/21 02:56:44;;;;;;;7.30;5.65;;;17.50;99.90;;;;;;5096864;28;20201;-72
2021/07/21 02:59:15;;;;;;;8.52;6.40;;;17.50;99.90;;;;;;5097017;28;20202;-72
2021/07/21 03:01:47;;;;;;;10.88;5.90;;;17.50;99.90;;;;;;5096495;28;20244;-72
2021/07/21 03:04:18;;;;;;;7.15;5.22;;;17.50;99.90;;;;;;5096512;28;20202;-72
2021/07/21 03:06:48;;;;;;;9.10;5.95;;;17.50;99.90;;;;;;5096364;28;20297;-72
2021/07/21 03:09:16;;;;;;;10.05;5.82;;;17.40;99.90;;;;;;5096468;28;20202;-72
2021/07/21 03:11:46;;;;;;;6.50;5.57;;;17.40;99.90;;;;;;5096012;28;20407;-72
2021/07/21 03:14:13;;;;;;;8.23;5.85;;;17.30;99.90;;;;;;5096219;28;20293;-72
2021/07/21 03:16:45;;;;;;;8.75;5.60;;;17.40;99.90;;;;;;5096237;28;20198;-72
2021/07/21 03:19:12;;;;;;;9.48;5.43;;;17.40;99.90;;;;;;5096383;28;20206;-72
2021/07/21 03:21:41;;;;;;;8.52;5.43;;;17.40;99.90;;;;;;5096300;28;20579;-72
2021/07/21 03:24:10;;;;;;;8.50;5.65;;;17.40;99.90;;;;;;5096412;28;20309;-72
2021/07/21 03:26:37;;;;;;;9.48;5.90;;;17.40;99.90;;;;;;5095992;28;20226;-72
2021/07/21 03:29:05;;;;;;;7.88;5.25;;;17.40;99.90;;;;;;5096127;28;20567;-72
2021/07/21 03:31:32;;;;;;;6.55;5.28;;;17.40;99.90;;;;;;5095922;28;20717;-72
2021/07/21 03:34:04;;;;;;;6.72;5.50;;;17.50;99.90;;;;;;5096110;28;20559;-72
2021/07/21 03:36:35;;;;;;;8.77;6.30;;;17.50;99.90;;;;;;5096053;28;20198;-72
2021/07/21 03:39:02;;;;;;;7.60;6.15;;;17.50;99.90;;;;;;5096342;28;20224;-72
2021/07/21 03:41:33;;;;;;;7.38;5.72;;;17.50;99.90;;;;;;5095375;28;20228;-72
2021/07/21 03:44:01;;;;;;;7.20;6.10;;;17.40;99.90;;;;;;5095827;28;20611;-72
2021/07/21 03:46:28;;;;;;;8.27;6.20;;;17.40;99.90;;;;;;5095724;28;20229;-72
2021/07/21 03:48:57;;;;;;;9.10;7.00;;;17.40;99.90;;;;;;5095658;28;20202;-72
2021/07/21 03:51:24;;;;;;;9.32;6.57;;;17.30;99.90;;;;;;5095148;28;20260;-72
2021/07/21 03:53:52;;;;;;;8.55;5.93;;;17.30;99.90;;;;;;5095396;28;20205;-72
2021/07/21 03:56:19;;;;;;;7.03;5.88;;;17.30;99.90;;;;;;5095362;28;20204;-72
2021/07/21 03:58:47;;;;;;;6.88;5.57;;;17.30;99.90;;;;;;5095574;28;20209;-72
2021/07/21 04:01:14;;;;;;;11.77;6.90;;;17.30;99.90;;;;;;5094946;28;20229;-72
2021/07/21 04:03:42;;;;;;;9.07;6.10;;;17.20;99.90;;;;;;5095630;28;20204;-72
2021/07/21 04:06:10;;;;;;;9.15;6.15;;;17.20;99.90;;;;;;5095011;28;20234;-72
2021/07/21 04:08:38;;;;;;;7.13;5.72;;;17.20;99.90;;;;;;5095201;28;20241;-72
2021/07/21 04:11:06;;;;;;;9.57;5.82;;;17.20;99.90;;;;;;5094838;28;20256;-72
2021/07/21 04:13:34;;;;;;;8.13;5.78;;;17.10;99.90;;;;;;5095326;28;20209;-72
2021/07/21 04:16:03;;;;;;;8.00;6.10;;;17.10;99.90;;;;;;5095565;28;20205;-72
2021/07/21 04:18:31;;;;;;;7.13;5.40;;;17.10;99.90;;;;;;5095323;28;20212;-72
2021/07/21 04:21:00;;;;;;;8.85;6.10;;;17.10;99.90;;;;;;5094628;28;20218;-71
2021/07/21 04:23:27;;;;;;;8.88;5.82;;;17.10;99.90;;;;;;5095150;28;20204;-72
2021/07/21 04:25:55;;;;;;;8.15;6.38;;;17.10;99.90;;;;;;5094910;28;20228;-72
2021/07/21 04:28:22;;;;;;;9.18;6.53;;;17.10;99.90;;;;;;5094934;28;20583;-72
2021/07/21 04:30:49;;;;;;;9.32;6.63;;;17.20;99.90;;;;;;5094621;28;20222;-72
2021/07/21 04:33:18;;;;;;;7.53;5.78;;;17.10;99.90;;;;;;5094979;28;20224;-72
2021/07/21 04:35:45;;;;;;;9.02;5.43;;;17.20;99.90;;;;;;5094912;28;20198;-72
2021/07/21 04:38:12;;;;;;;8.07;6.13;;;17.20;99.90;;;;;;5094580;28;20212;-72
2021/07/21 04:40:43;;;;;;;9.07;6.85;;;17.20;99.90;;;;;;5093753;28;20314;-72
2021/07/21 04:43:10;;;;;;;9.77;6.60;;;17.20;99.90;;;;;;5094847;28;20212;-72
2021/07/21 04:45:41;;;;;;;9.15;6.07;;;17.20;99.90;;;;;;5094682;28;20230;-72
2021/07/21 04:48:11;;;;;;;9.57;6.72;;;17.20;99.90;;;;;;5094210;28;20293;-72
2021/07/21 04:50:40;;;;;;;10.50;6.65;;;17.10;99.90;;;;;;5093947;28;20228;-72
2021/07/21 04:53:08;;;;;;;8.57;6.75;;;17.20;99.90;;;;;;5094405;28;20202;-72
2021/07/21 04:55:35;;;;;;;9.50;6.30;;;17.20;99.90;;;;;;5094583;28;20719;-72
2021/07/21 04:58:01;;;;;;;9.25;6.43;;;17.20;99.90;;;;;;5094684;28;20301;-72
2021/07/21 05:00:29;;;;;;;9.00;6.40;;;17.20;99.90;;;;;;5094100;28;20316;-72
2021/07/21 05:02:57;;;;;;;9.43;6.63;;;17.10;99.90;;;;;;5094299;28;20635;-72
2021/07/21 05:05:24;;;;;;;8.80;6.35;;;17.00;99.90;;;;;;5094169;28;20226;-72
2021/07/21 05:07:53;;;;;;;8.57;5.95;;;17.00;99.90;;;;;;5094387;28;20207;-72
2021/07/21 05:10:19;;;;;;;7.50;6.05;;;17.00;99.90;;;;;;5093646;28;20221;-72
2021/07/21 05:12:46;;;;;;;10.13;6.40;;;17.00;99.90;;;;;;5093867;28;20680;-72
2021/07/21 05:15:13;;;;;;;9.45;7.30;;;16.80;99.90;;;;;;5094094;28;20292;-72
2021/07/21 05:17:40;;;;;;;9.55;5.93;;;16.70;99.90;;;;;;5094180;28;20296;-72
2021/07/21 05:20:09;;;;;;;13.90;7.90;;;16.60;99.90;;;;;;5093905;28;20222;-72
2021/07/21 05:22:36;;;;;;;8.32;5.72;;;16.50;99.90;;;;;;5094304;28;20288;-72
2021/07/21 05:25:04;;;;;;;8.95;6.22;;;16.50;99.90;;;;;;5094143;28;20216;-72
2021/07/21 05:27:31;;;;;;;11.68;6.80;;;16.50;99.90;;;;;;5093599;28;20206;-72
2021/07/21 05:29:58;;;;;;;9.05;7.00;;;16.40;99.90;;;;;;5093520;28;20262;-72
2021/07/21 05:32:25;;;;;;;10.48;7.20;;;16.30;99.90;;;;;;5093816;28;20204;-72
2021/07/21 05:34:52;;;;;;;11.75;7.50;;;16.30;99.90;;;;;;5093905;28;20293;-72
2021/07/21 05:37:18;;;;;;;11.07;6.90;;;16.30;99.90;;;;;;5094044;28;20212;-73
2021/07/21 05:39:45;;;;;;;10.45;7.30;;;16.30;99.90;;;;;;5094011;28;20295;-72
2021/07/21 05:42:14;;;;;;;11.40;7.22;;;16.30;99.90;;;;;;5093661;28;20292;-72
2021/07/21 05:44:41;;;;;;;10.43;6.80;;;16.40;99.90;;;;;;5093606;28;20575;-72
2021/07/21 05:47:08;;;;;;;9.60;7.57;;;16.50;99.90;;;;;;5093680;28;20695;-72
2021/07/21 05:49:35;;;;;;;10.27;6.88;;;16.50;99.90;;;;;;5093786;28;20825;-72
2021/07/21 05:52:02;;;;;;;12.07;7.55;;;16.50;99.90;;;;;;5096074;28;20229;-72
2021/07/21 05:54:29;;;;;;;11.55;7.20;;;16.60;99.90;;;;;;5097281;28;20228;-72
2021/07/21 05:56:56;;;;;;;7.30;6.00;;;16.60;99.90;;;;;;5097365;28;20201;-72
2021/07/21 05:59:24;;;;;;;9.27;6.18;;;16.70;99.90;;;;;;5097695;28;20212;-72
2021/07/21 06:01:51;;;;;;;10.23;7.53;;;16.70;99.90;;;;;;5097398;28;20228;-72
2021/07/21 06:04:18;;;;;;;9.65;7.10;;;16.60;99.90;;;;;;5097924;28;20213;-72
2021/07/21 06:06:44;;;;;;;9.15;7.07;;;16.60;99.90;;;;;;5097767;28;20228;-73
2021/07/21 06:09:11;;;;;;;10.90;6.93;;;16.50;99.90;;;;;;5097409;28;20292;-73
2021/07/21 06:11:38;;;;;;;9.80;6.85;;;16.60;99.90;;;;;;5097296;28;20248;-73
2021/07/21 06:14:05;;;;;;;12.43;7.75;;;16.80;99.90;;;;;;5097564;28;20198;-73
2021/07/21 06:16:34;;;;;;;14.27;7.13;;;16.90;99.90;;;;;;5097293;28;20199;-73
2021/07/21 06:19:00;;;;;;;10.70;6.75;;;16.90;99.90;;;;;;5097604;28;20212;-73
2021/07/21 06:21:27;;;;;;;12.15;7.22;;;17.10;99.90;;;;;;5096710;28;20240;-73
2021/07/21 06:23:54;;;;;;;8.65;6.57;;;17.20;99.90;;;;;;5096934;28;20293;-73
2021/07/21 06:26:21;;;;;;;7.95;5.90;;;17.10;99.90;;;;;;5097172;28;20229;-73
2021/07/21 06:28:48;;;;;;;11.70;7.75;;;17.20;99.90;;;;;;5096909;28;20209;-74
2021/07/21 06:31:16;;;;;;;9.35;7.25;;;17.20;99.90;;;;;;5096688;28;20237;-73
2021/07/21 06:33:44;;;;;;;10.55;7.68;;;17.20;99.90;;;;;;5097430;28;20208;-73
2021/07/21 06:36:12;;;;;;;10.35;7.03;;;17.30;99.90;;;;;;5096953;28;20205;-73
2021/07/21 06:38:39;;;;;;;10.70;7.78;;;17.30;99.90;;;;;;5097048;28;20202;-73
2021/07/21 06:41:06;;;;;;;10.15;5.85;;;17.20;99.90;;;;;;5096688;28;20222;-73
2021/07/21 06:43:32;;;;;;;10.70;7.00;;;17.20;99.90;;;;;;5097070;28;20206;-73
2021/07/21 06:45:59;;;;;;;8.73;7.00;;;17.30;99.90;;;;;;5097103;28;20229;-73
2021/07/21 06:48:26;;;;;;;10.20;6.60;;;17.50;99.90;;;;;;5097306;28;20198;-73
2021/07/21 06:50:54;;;;;;;10.60;6.68;;;17.50;99.90;;;;;;5096288;28;20743;-73
2021/07/21 06:53:21;;;;;;;10.32;6.95;;;17.50;99.90;;;;;;5096914;28;20198;-73
2021/07/21 06:55:48;;;;;;;9.00;6.78;;;17.50;99.90;;;;;;5096734;28;20209;-73
2021/07/21 06:58:15;;;;;;;8.50;6.40;;;17.60;99.90;;;;;;5096649;28;20739;-73
2021/07/21 07:00:42;;;;;;;10.38;7.40;;;17.70;99.90;;;;;;5096365;28;20221;-73
2021/07/21 07:03:09;;;;;;;9.90;7.10;;;17.90;99.90;;;;;;5096347;28;20228;-73
2021/07/21 07:05:36;;;;;;;10.63;7.63;;;18.10;99.90;;;;;;5096363;28;20209;-73
2021/07/21 07:08:05;;;;;;;12.45;7.28;;;18.30;99.90;;;;;;5096509;28;20208;-73
2021/07/21 07:10:32;;;;;;;8.13;6.65;;;18.80;99.90;;;;;;5095839;28;20222;-73
2021/07/21 07:12:59;;;;;;;9.15;6.43;;;19.20;99.90;;;;;;5096519;28;20296;-74
2021/07/21 07:15:26;;;;;;;8.67;6.50;;;19.20;99.90;;;;;;5096536;28;20209;-74
2021/07/21 07:17:53;;;;;;;9.47;7.07;;;19.40;99.90;;;;;;5096066;28;20448;-74
2021/07/21 07:20:19;;;;;;;9.30;7.10;;;19.70;99.90;;;;;;5095507;28;20983;-73
2021/07/21 07:22:46;;;;;;;10.35;7.82;;;19.60;99.90;;;;;;5096317;28;20441;-73
2021/07/21 07:25:15;;;;;;;8.55;6.90;;;19.50;99.90;;;;;;5093288;28;20199;-74
2021/07/21 07:27:42;;;;;;;9.33;7.23;;;19.80;99.90;;;;;;5082252;28;20227;-74
2021/07/21 07:30:14;;;;;;;9.15;7.40;;;20.00;99.90;;;;;;5074307;28;20473;-74
2021/07/21 07:32:41;;;;;;;9.80;6.83;;;20.10;99.90;;;;;;5074858;28;20231;-74
2021/07/21 07:35:08;;;;;;;8.70;6.70;;;20.20;99.90;;;;;;5074577;28;20465;-74
2021/07/21 07:37:35;;;;;;;8.63;6.90;;;20.00;99.90;;;;;;5074387;28;20526;-74
2021/07/21 07:40:03;;;;;;;7.50;6.73;;;20.00;99.90;;;;;;5074022;28;21029;-74
2021/07/21 07:42:31;;;;;;;9.00;6.83;;;19.90;99.90;;;;;;5074153;28;20541;-74
2021/07/21 07:44:58;;;;;;;10.90;7.57;;;19.80;99.90;;;;;;5074318;28;20462;-74
2021/07/21 07:47:25;;;;;;;10.00;6.97;;;20.00;99.90;;;;;;5073996;28;20909;-74
2021/07/21 07:49:51;;;;;;;13.00;7.03;;;20.20;99.90;;;;;;5073713;28;20489;-74
2021/07/21 07:52:18;;;;;;;8.37;6.70;;;20.50;99.90;;;;;;5074016;28;20448;-74
2021/07/21 07:54:45;;;;;;;9.20;6.37;;;21.20;99.90;;;;;;5074187;28;20449;-74
2021/07/21 07:57:12;;;;;;;8.40;6.97;;;22.20;99.90;;;;;;5074018;28;20465;-75
2021/07/21 07:59:40;;;;;;;8.90;6.97;;;23.60;98.10;;;;;;5075316;28;20534;-78
2021/07/21 08:02:07;;;;;;;9.67;7.27;;;25.10;96.10;;;;;;5076263;28;20999;-78
2021/07/21 08:04:34;;;;;;;6.47;5.80;;;26.20;91.40;;;;;;5078420;28;20451;-79
2021/07/21 08:07:01;;;;;;;8.97;6.37;;;25.90;90.60;;;;;;5079313;28;20582;-79
2021/07/21 08:09:28;;;;;;;8.57;6.97;;;25.50;90.50;;;;;;5078920;28;20882;-78
2021/07/21 08:11:59;;;;;;;11.63;7.33;;;25.20;90.90;;;;;;5076850;28;20557;-77
2021/07/21 08:14:27;;;;;;;9.33;7.80;;;24.50;91.80;;;;;;5074433;28;20578;-73
2021/07/21 08:16:55;;;;;;;7.57;6.33;;;24.20;92.90;;;;;;5074752;28;20444;-74
2021/07/21 08:19:23;;;;;;;8.27;6.50;;;24.90;93.70;;;;;;5074894;28;20543;-73
2021/07/21 08:21:51;;;;;;;9.77;7.23;;;25.40;91.50;;;;;;5074640;28;20518;-74
2021/07/21 08:24:19;;;;;;;8.57;7.13;;;26.90;91.10;;;;;;5074914;28;20537;-74
2021/07/21 08:26:46;;;;;;;8.87;7.07;;;27.70;84.00;;;;;;5074501;28;20484;-74
2021/07/21 08:29:13;;;;;;;8.10;7.30;;;27.60;81.20;;;;;;5074038;28;20446;-74
2021/07/21 08:31:40;;;;;;;8.30;7.33;;;27.50;80.50;;;;;;5074439;28;20894;-73
2021/07/21 08:34:10;;;;;;;10.13;7.90;;;27.20;80.30;;;;;;5074691;28;20437;-74
2021/07/21 08:36:38;;;;;;;7.70;6.43;;;26.90;80.90;;;;;;5074810;28;20540;-74
2021/07/21 08:39:09;;;;;;;10.20;7.33;;;27.00;80.80;;;;;;5074311;28;20934;-74
2021/07/21 08:41:38;;;;;;;8.67;7.40;;;27.70;78.00;;;;;;5074191;28;20467;-74
2021/07/21 08:44:06;;;;;;;9.00;6.80;;;28.50;76.80;;;;;;5074368;28;20445;-74
2021/07/21 08:46:33;;;;;;;7.57;6.77;;;29.90;70.60;;;;;;5074644;28;20488;-74
2021/07/21 08:48:59;;;;;;;7.83;7.03;;;31.00;66.70;;;;;;5074458;28;20454;-74
2021/07/21 08:51:28;;;;;;;7.13;6.50;;;31.60;61.90;;;;;;5073681;28;20476;-74
2021/07/21 08:53:55;;;;;;;8.07;7.10;;;31.40;58.50;;;;;;5074065;28;20535;-72
2021/07/21 08:56:22;;;;;;;8.27;7.00;;;31.50;60.60;;;;;;5074190;28;20500;-72
2021/07/21 08:58:50;;;;;;;7.40;6.70;;;32.40;58.30;;;;;;5074156;28;20460;-72
2021/07/21 09:01:18;;;;;;;7.67;6.87;;;32.90;55.10;;;;;;5073476;28;20465;-72
2021/07/21 09:03:45;;;;;;;8.47;7.00;;;32.80;55.00;;;;;;5074315;28;20448;-72
2021/07/21 09:06:13;;;;;;;7.70;7.00;;;32.30;55.70;;;;;;5073522;28;20552;-72
2021/07/21 09:08:41;;;;;;;7.70;7.00;;;32.80;54.00;;;;;;5073797;28;20451;-72
2021/07/21 09:11:09;;;;;;;7.90;7.03;;;33.20;52.10;;;;;;5073798;28;20474;-72
2021/07/21 09:13:38;;;;;;;8.37;7.50;;;32.90;53.80;;;;;;5074060;28;20445;-72
2021/07/21 09:16:05;;;;;;;7.73;6.67;;;32.80;52.90;;;;;;5073904;28;20444;-71
2021/07/21 09:18:47;;;;;;;7.80;7.00;;;32.40;51.70;;;;;;5074204;28;20434;-71
2021/07/21 09:21:16;;;;;;;7.60;6.90;;;32.10;53.60;;;;;;5073420;28;20467;-72
2021/07/21 09:23:46;;;;;;;7.77;7.07;;;33.00;53.20;;;;;;5074040;28;20441;-72
2021/07/21 09:26:19;;;;;;;7.57;6.87;;;33.80;50.60;;;;;;5073840;28;20784;-72
2021/07/21 09:28:46;;;;;;;6.53;6.00;;;33.60;51.00;;;;;;5073857;28;20459;-72
2021/07/21 09:31:15;;;;;;;7.00;6.33;;;34.40;52.00;;;;;;5073284;28;20471;-72
2021/07/21 09:33:44;;;;;;;7.43;6.70;;;34.40;49.50;;;;;;5073709;28;20551;-72
2021/07/21 09:36:19;;;;;;;8.67;7.10;;;34.20;48.00;;;;;;5073602;28;20445;-72
2021/07/21 09:38:48;;;;;;;7.20;6.50;;;34.50;47.60;;;;;;5074130;28;20452;-72
2021/07/21 09:41:16;;;;;;;7.23;6.50;;;35.20;47.50;;;;;;5073181;28;20530;-71
2021/07/21 09:43:44;;;;;;;7.17;6.47;;;35.90;47.50;;;;;;5073445;28;20451;-72
2021/07/21 09:46:14;;;;;;;8.00;6.47;;;36.40;45.40;;;;;;5073584;28;20460;-72
2021/07/21 09:48:43;;;;;;;7.20;6.50;;;36.20;46.00;;;;;;5073419;28;20992;-72
2021/07/21 09:51:11;;;;;;;8.40;6.60;;;36.10;46.60;;;;;;5073013;28;20461;-71
2021/07/21 09:53:41;;;;;;;7.43;6.83;;;35.60;45.30;;;;;;5074007;28;20441;-72
2021/07/21 09:56:10;;;;;;;7.33;6.73;;;35.50;45.20;;;;;;5073794;28;20468;-71
2021/07/21 09:58:37;;;;;;;7.33;6.50;;;34.30;45.90;;;;;;5073417;28;20445;-73
2021/07/21 10:01:05;;;;;;;7.87;7.07;;;33.30;47.50;;;;;;5073233;28;20461;-74
2021/07/21 10:03:37;;;;;;;8.13;7.23;;;32.80;49.00;;;;;;5073550;28;20468;-74
2021/07/21 10:06:06;;;;;;;8.57;7.33;;;33.10;48.90;;;;;;5073680;28;20792;-74
2021/07/21 10:08:37;;;;;;;7.70;6.90;;;33.40;47.90;;;;;;5073553;28;20566;-74
2021/07/21 10:11:27;;;;;;;7.90;7.00;;;32.50;49.20;;;;;;5073112;28;20868;-74
2021/07/21 10:13:56;;;;;;;7.90;7.10;;;31.50;51.60;;;;;;5073399;28;20788;-73
2021/07/21 10:16:37;;;;;;;9.70;7.00;;;31.10;52.60;;;;;;5073416;28;20441;-73
2021/07/21 10:19:06;;;;;;;7.87;6.33;;;31.60;51.90;;;;;;5073549;28;20469;-74
2021/07/21 10:21:34;;;;;;;6.70;5.97;;;32.50;51.00;;;;;;5072729;28;20459;-74
2021/07/21 10:24:01;;;;;;;7.47;6.13;;;33.10;49.20;;;;;;5073262;28;20455;-74
2021/07/21 10:26:29;;;;;;;7.77;6.97;;;33.60;49.50;;;;;;5073344;28;20452;-74
2021/07/21 10:28:57;;;;;;;7.73;6.93;;;33.50;48.50;;;;;;5073036;28;20571;-74
2021/07/21 10:31:24;;;;;;;7.60;6.80;;;33.50;46.90;;;;;;5073401;28;20457;-74
2021/07/21 10:33:52;;;;;;;7.90;7.10;;;34.00;47.80;;;;;;5073011;28;20441;-75
2021/07/21 10:36:19;;;;;;;7.20;6.50;;;33.90;47.60;;;;;;5073094;28;20441;-74
2021/07/21 10:38:46;;;;;;;7.63;6.90;;;34.60;48.00;;;;;;5076340;28;20440;-72
2021/07/21 10:41:14;;;;;;;8.00;7.20;;;35.40;45.00;;;;;;5075988;28;21046;-72
2021/07/21 10:43:45;;;;;;;7.33;6.63;;;35.10;44.90;;;;;;5077125;28;20441;-72
2021/07/21 10:46:36;;;;;;;9.40;6.87;;;34.50;45.70;;;;;;5076230;28;20458;-72
2021/07/21 10:49:16;;;;;;;7.53;6.43;;;33.70;45.70;;;;;;5076426;28;20472;-75
2021/07/21 10:54:57;;;;;;;6.80;6.00;;;31.60;49.00;;;;;;5055381;28;20425;-74
2021/07/21 11:00:14;;;;;;;8.17;7.37;;;30.40;52.50;;;;;;5076190;28;20439;-74
2021/07/21 11:02:41;;;;;;;8.70;6.53;;;29.10;53.30;;;;;;5076603;28;20469;-74
2021/07/21 11:05:29;;;;;;;7.80;6.60;;;28.40;55.20;;;;;;5075954;28;20448;-73
2021/07/21 11:07:57;;;;;;;7.67;6.87;;;28.10;57.00;;;;;;5076335;28;20476;-73
2021/07/21 11:10:32;;;;;;;8.40;7.00;;;28.10;58.20;;;;;;5075836;28;20816;-73
2021/07/21 11:12:59;;;;;;;6.80;6.20;;;28.00;58.80;;;;;;5076415;28;20492;-73
2021/07/21 11:15:36;;;;;;;6.80;6.10;;;28.00;62.60;;;;;;5075936;28;20440;-73
2021/07/21 11:18:48;;;;;;;7.27;6.57;;;28.10;58.60;;;;;;5076099;28;20429;-73
2021/07/21 11:21:16;;;;;;;7.73;6.50;;;27.70;56.80;;;;;;5075617;28;20467;-73
2021/07/21 11:23:46;;;;;;;8.73;6.73;;;27.10;60.90;;;;;;5075782;28;20472;-73
2021/07/21 11:26:30;;;;;;;7.80;7.00;;;26.80;59.10;;;;;;5075870;28;20803;-73
2021/07/21 11:28:57;;;;;;;9.53;7.00;;;26.80;60.70;;;;;;5075480;28;20480;-73
2021/07/21 11:31:58;;;;;;;8.03;7.07;;;26.50;62.00;;;;;;5075230;28;20465;-73
2021/07/21 11:34:29;;;;;;;7.70;6.90;;;26.60;64.00;;;;;;5075722;28;20524;-74
2021/07/21 11:36:57;;;;;;;8.50;6.53;;;27.10;62.80;;;;;;5075446;28;20441;-73
2021/07/21 11:39:44;;;;;;;7.50;6.63;;;27.40;64.60;;;;;;5075791;28;20433;-73
2021/07/21 11:42:29;;;;;;;8.47;7.67;;;27.60;63.40;;;;;;5075908;28;20441;-73
2021/07/21 11:45:11;;;;;;;7.80;7.00;;;27.20;61.30;;;;;;5075588;28;20433;-73
2021/07/21 11:47:41;;;;;;;7.90;6.37;;;26.70;60.50;;;;;;5075622;28;20854;-73
2021/07/21 11:50:10;;;;;;;8.17;6.20;;;26.80;64.40;;;;;;5074201;28;20552;-74
2021/07/21 11:52:38;;;;;;;7.93;7.13;;;27.10;67.00;;;;;;5075667;28;20443;-73
2021/07/21 11:55:05;;;;;;;7.93;7.10;;;27.50;64.40;;;;;;5074933;28;20832;-73
2021/07/21 11:57:32;;;;;;;10.13;7.43;;;27.50;61.40;;;;;;5075043;28;20926;-73
2021/07/21 12:00:00;;;;;;;8.80;6.83;;;27.40;60.30;;;;;;5075283;28;20443;-73
2021/07/21 12:02:29;;;;;;;8.53;7.10;;;27.40;60.70;;;;;;5075004;28;20452;-73
2021/07/21 12:04:59;;;;;;;7.63;6.50;;;27.50;63.50;;;;;;5075401;28;20444;-73
2021/07/21 12:07:33;;;;;;;9.40;6.97;;;27.30;61.00;;;;;;5075083;28;20477;-73
2021/07/21 12:10:10;;;;;;;8.70;7.13;;;26.90;62.50;;;;;;5074737;28;20445;-73
2021/07/21 12:12:38;;;;;;;8.00;6.90;;;26.50;61.50;;;;;;5075120;28;20444;-73
2021/07/21 12:15:06;;;;;;;10.20;8.00;;;26.40;65.70;;;;;;5075414;28;20541;-73
2021/07/21 12:17:33;;;;;;;8.30;7.30;;;26.60;63.40;;;;;;5075099;28;20523;-73
2021/07/21 12:20:05;;;;;;;9.93;7.70;;;26.80;64.40;;;;;;5074182;28;21017;-73
2021/07/21 12:22:33;;;;;;;9.57;7.90;;;26.90;64.20;;;;;;5074532;28;20437;-73
2021/07/21 12:25:02;;;;;;;10.10;7.60;;;27.10;62.90;;;;;;5074631;28;20861;-73
2021/07/21 12:27:32;;;;;;;8.07;7.27;;;27.20;66.20;;;;;;5074705;28;20915;-73
2021/07/21 12:29:59;;;;;;;8.60;6.50;;;27.30;65.60;;;;;;5074024;28;20461;-73
2021/07/21 12:32:26;;;;;;;8.30;6.90;;;27.40;64.50;;;;;;5074873;28;21140;-73
2021/07/21 12:34:55;;;;;;;8.07;7.27;;;27.70;64.50;;;;;;5074517;28;20441;-73
2021/07/21 12:37:25;;;;;;;8.17;7.33;;;27.70;61.70;;;;;;5074539;28;20449;-73
2021/07/21 12:39:53;;;;;;;8.27;7.03;;;27.60;64.70;;;;;;5074237;28;20446;-74
2021/07/21 12:42:21;;;;;;;8.20;7.17;;;27.40;63.70;;;;;;5074560;28;20441;-73
2021/07/21 12:44:50;;;;;;;9.53;7.90;;;27.00;63.40;;;;;;5074614;28;20463;-74
2021/07/21 12:47:19;;;;;;;9.50;7.63;;;26.90;65.40;;;;;;5074157;28;20445;-73
2021/07/21 12:49:48;;;;;;;9.67;7.60;;;26.70;66.20;;;;;;5074063;28;20539;-74
2021/07/21 12:52:19;;;;;;;8.10;7.30;;;26.80;67.20;;;;;;5074164;28;20433;-73
2021/07/21 12:54:52;;;;;;;8.23;6.30;;;27.00;66.20;;;;;;5074425;28;20451;-73
2021/07/21 12:57:36;;;;;;;8.47;6.57;;;27.20;65.50;;;;;;5074378;28;20449;-73
2021/07/21 13:00:10;;;;;;;8.37;7.40;;;27.40;64.80;;;;;;5073210;28;21078;-73
2021/07/21 13:02:37;;;;;;;7.63;6.83;;;27.40;63.00;;;;;;5074129;28;20903;-73
2021/07/21 13:05:25;;;;;;;7.60;6.80;;;27.60;64.00;;;;;;5074242;28;20445;-73